createdAt,value
2018-08-03T00:01:54.111Z,26.80
2018-08-03T00:04:32.381Z,26.50
2018-08-03T00:07:13.180Z,26.50
2018-08-03T00:09:49.705Z,26.40
2018-08-03T00:12:39.459Z,26.20
2018-08-03T00:15:17.486Z,26.10
2018-08-03T00:17:50.308Z,26.10
2018-08-03T00:20:26.030Z,26.10
2018-08-03T00:22:58.736Z,26.10
2018-08-03T00:25:35.415Z,26.10
2018-08-03T00:28:17.228Z,26.00
2018-08-03T00:30:58.093Z,26.10
2018-08-03T00:33:35.007Z,26.00
2018-08-03T00:36:08.411Z,25.90
2018-08-03T00:38:46.874Z,25.70
2018-08-03T00:41:24.114Z,25.70
2018-08-03T00:44:11.507Z,25.90
2018-08-03T00:46:49.618Z,25.90
2018-08-03T00:49:31.303Z,26.10
2018-08-03T00:52:07.524Z,26.40
2018-08-03T00:54:41.872Z,26.30
2018-08-03T00:57:17.510Z,26.30
2018-08-03T00:59:52.695Z,26.30
2018-08-03T01:02:30.238Z,26.30
2018-08-03T01:05:01.122Z,26.30
2018-08-03T01:07:41.547Z,26.20
2018-08-03T01:10:14.899Z,26.00
2018-08-03T01:12:48.888Z,26.00
2018-08-03T01:15:26.164Z,25.80
2018-08-03T01:18:00.045Z,25.70
2018-08-03T01:20:32.873Z,25.70
2018-08-03T01:23:11.423Z,25.50
2018-08-03T01:25:53.361Z,25.40
2018-08-03T01:28:29.635Z,25.50
2018-08-03T01:31:04.461Z,25.50
2018-08-03T01:33:41.702Z,25.50
2018-08-03T01:36:16.806Z,25.50
2018-08-03T01:38:53.431Z,25.40
2018-08-03T01:41:40.003Z,25.60
2018-08-03T01:44:15.832Z,25.50
2018-08-03T01:46:53.376Z,25.60
2018-08-03T01:49:31.137Z,25.50
2018-08-03T01:52:05.002Z,25.60
2018-08-03T01:54:47.751Z,25.40
2018-08-03T01:57:23.046Z,25.40
2018-08-03T02:00:00.383Z,25.40
2018-08-03T02:02:36.098Z,25.10
2018-08-03T02:05:14.082Z,25.00
2018-08-03T02:07:51.205Z,24.90
2018-08-03T02:10:27.666Z,24.90
2018-08-03T02:13:01.794Z,24.90
2018-08-03T02:15:36.721Z,24.90
2018-08-03T02:18:06.966Z,24.90
2018-08-03T02:20:38.852Z,24.80
2018-08-03T02:23:12.032Z,24.60
2018-08-03T02:25:49.761Z,24.50
2018-08-03T02:28:25.415Z,24.50
2018-08-03T02:31:03.264Z,24.60
2018-08-03T02:33:37.838Z,24.60
2018-08-03T02:36:15.418Z,24.50
2018-08-03T02:38:54.420Z,24.40
2018-08-03T02:41:30.338Z,24.40
2018-08-03T02:44:04.049Z,24.30
2018-08-03T02:46:45.320Z,24.20
2018-08-03T02:49:22.196Z,24.30
2018-08-03T02:51:58.644Z,24.30
2018-08-03T02:54:38.320Z,24.20
2018-08-03T02:57:16.789Z,24.20
2018-08-03T02:59:52.242Z,24.20
2018-08-03T03:02:24.537Z,24.20
2018-08-03T03:05:02.911Z,24.30
2018-08-03T03:07:44.814Z,24.30
2018-08-03T03:13:06.777Z,24.20
2018-08-03T03:15:43.860Z,24.20
2018-08-03T03:18:20.076Z,24.10
2018-08-03T03:20:55.960Z,24.20
2018-08-03T03:31:26.855Z,24.10
2018-08-03T03:34:02.190Z,24.10
2018-08-03T03:36:42.333Z,24.00
2018-08-03T03:39:17.987Z,23.90
2018-08-03T03:41:49.643Z,23.90
2018-08-03T03:44:22.987Z,23.90
2018-08-03T03:46:56.511Z,23.70
2018-08-03T03:49:32.708Z,23.90
2018-08-03T03:54:38.921Z,23.80
2018-08-03T03:57:19.113Z,23.70
2018-08-03T03:59:55.710Z,23.60
2018-08-03T04:02:32.080Z,23.40
2018-08-03T04:05:08.073Z,23.40
2018-08-03T04:07:41.342Z,23.40
2018-08-03T04:10:15.229Z,23.40
2018-08-03T04:12:52.220Z,23.40
2018-08-03T04:15:26.311Z,23.40
2018-08-03T04:18:03.351Z,23.40
2018-08-03T04:20:41.406Z,23.40
2018-08-03T04:23:17.634Z,23.40
2018-08-03T04:25:57.081Z,23.40
2018-08-03T04:28:34.714Z,23.30
2018-08-03T04:31:11.083Z,23.50
2018-08-03T04:33:48.057Z,23.40
2018-08-03T04:36:26.542Z,23.50
2018-08-03T04:39:04.759Z,23.40
2018-08-03T04:41:39.988Z,23.50
2018-08-03T04:44:11.579Z,23.50
2018-08-03T04:46:46.084Z,23.70
2018-08-03T04:49:31.929Z,24.20
2018-08-03T04:52:09.039Z,25.00
2018-08-03T04:54:48.077Z,25.60
2018-08-03T04:57:38.121Z,26.60
2018-08-03T05:00:23.493Z,27.10
2018-08-03T05:03:04.017Z,27.30
2018-08-03T05:05:52.359Z,27.70
2018-08-03T05:08:40.716Z,28.20
2018-08-03T05:11:23.495Z,28.70
2018-08-03T05:14:06.662Z,29.00
2018-08-03T05:17:12.419Z,29.40
2018-08-03T05:19:50.249Z,29.70
2018-08-03T05:22:28.387Z,29.10
2018-08-03T05:25:00.588Z,29.40
2018-08-03T05:28:11.233Z,29.30
2018-08-03T05:30:49.850Z,29.60
2018-08-03T05:33:29.143Z,29.90
2018-08-03T05:36:05.730Z,30.40
2018-08-03T05:38:38.316Z,30.70
2018-08-03T05:41:22.114Z,30.70
2018-08-03T05:44:33.086Z,30.90
2018-08-03T05:47:11.471Z,31.20
2018-08-03T05:49:49.454Z,31.50
2018-08-03T05:52:26.963Z,31.90
2018-08-03T05:55:04.912Z,32.40
2018-08-03T06:01:43.792Z,33.10
2018-08-03T06:04:20.636Z,33.50
2018-08-03T06:07:04.363Z,34.00
2018-08-03T06:10:15.962Z,34.50
2018-08-03T06:18:15.876Z,34.60
2018-08-03T06:21:04.858Z,35.10
2018-08-03T06:24:24.708Z,35.60
2018-08-03T06:27:07.463Z,35.80
2018-08-03T06:29:47.000Z,35.50
2018-08-03T06:32:27.983Z,35.80
2018-08-03T06:35:07.750Z,36.10
2018-08-03T06:37:59.246Z,36.40
2018-08-03T06:40:41.646Z,36.70
2018-08-03T06:43:25.662Z,36.90
2018-08-03T06:46:52.817Z,36.90
2018-08-03T06:49:47.283Z,37.40
2018-08-03T06:58:10.600Z,38.20
2018-08-03T07:01:02.065Z,38.10
2018-08-03T07:03:44.930Z,38.80
2018-08-03T07:06:26.104Z,39.20
2018-08-03T07:15:21.245Z,39.20
2018-08-03T07:19:09.964Z,39.10
2018-08-03T07:21:50.188Z,40.30
2018-08-03T07:24:39.096Z,40.30
2018-08-03T07:30:22.645Z,40.30
2018-08-03T07:39:39.499Z,40.30
2018-08-03T07:42:21.020Z,40.50
2018-08-03T07:47:49.053Z,41.20
2018-08-03T07:56:32.508Z,41.60
2018-08-03T07:59:24.451Z,41.30
2018-08-03T08:02:19.009Z,41.60
2018-08-03T08:05:03.548Z,41.60
2018-08-03T08:07:50.965Z,42.10
2018-08-03T08:10:36.540Z,42.30
2018-08-03T08:13:22.332Z,42.40
2018-08-03T08:16:13.132Z,42.60
2018-08-03T08:19:01.039Z,42.60
2018-08-03T08:29:42.725Z,42.70
2018-08-03T08:32:34.580Z,43.30
2018-08-03T08:35:25.073Z,43.50
2018-08-03T08:38:09.410Z,43.60
2018-08-03T08:40:44.960Z,43.80
2018-08-03T08:46:16.582Z,43.40
2018-08-03T09:00:17.560Z,43.70
2018-08-03T09:03:05.299Z,43.60
2018-08-03T09:05:48.453Z,43.70
2018-08-03T09:08:31.377Z,43.70
2018-08-03T09:11:29.472Z,43.20
2018-08-03T09:14:38.276Z,43.00
2018-08-03T09:17:21.484Z,43.40
2018-08-03T09:40:19.477Z,42.40
2018-08-03T09:43:03.238Z,42.00
2018-08-03T09:49:05.018Z,42.10
2018-08-03T09:51:54.733Z,42.50
2018-08-03T10:01:34.254Z,42.40
2018-08-03T10:04:28.287Z,42.40
2018-08-03T10:10:18.709Z,42.80
2018-08-03T10:22:25.724Z,42.40
2018-08-03T10:25:20.642Z,41.90
2018-08-03T10:31:27.261Z,40.60
2018-08-03T10:34:15.228Z,40.10
2018-08-03T23:01:00.329Z,28.20
2018-08-03T23:03:42.185Z,28.20
2018-08-03T23:06:34.493Z,28.10
2018-08-03T23:18:00.925Z,28.00
2018-08-03T23:32:35.710Z,28.20
2018-08-03T23:38:09.574Z,28.20
2018-08-03T23:40:54.348Z,28.20
2018-08-03T23:43:31.174Z,28.20
2018-08-03T23:48:56.545Z,28.30
